sensor_id;sensor_type;location;lat;lon;timestamp;P1;durP1;ratioP1;P2;durP2;ratioP2
47329;SDS011;33060;50.178;7.570;2022-09-03T00:00:28;2.15;;;1.10;;
47329;SDS011;33060;50.178;7.570;2022-09-03T00:03:03;1.90;;;0.90;;
47329;SDS011;33060;50.178;7.570;2022-09-03T00:05:36;2.85;;;1.02;;
47329;SDS011;33060;50.178;7.570;2022-09-03T00:10:51;1.63;;;1.10;;
47329;SDS011;33060;50.178;7.570;2022-09-03T00:13:28;2.97;;;1.13;;
47329;SDS011;33060;50.178;7.570;2022-09-03T00:15:58;4.28;;;1.10;;
47329;SDS011;33060;50.178;7.570;2022-09-03T00:18:28;1.95;;;1.17;;
47329;SDS011;33060;50.178;7.570;2022-09-03T00:21:08;3.28;;;1.10;;
47329;SDS011;33060;50.178;7.570;2022-09-03T00:23:41;2.35;;;1.23;;
47329;SDS011;33060;50.178;7.570;2022-09-03T00:28:45;2.75;;;1.00;;
47329;SDS011;33060;50.178;7.570;2022-09-03T00:31:31;1.48;;;0.90;;
47329;SDS011;33060;50.178;7.570;2022-09-03T00:34:26;2.40;;;1.00;;
47329;SDS011;33060;50.178;7.570;2022-09-03T00:36:52;1.40;;;1.20;;
47329;SDS011;33060;50.178;7.570;2022-09-03T00:39:19;3.03;;;1.25;;
47329;SDS011;33060;50.178;7.570;2022-09-03T01:01:20;2.22;;;1.20;;
47329;SDS011;33060;50.178;7.570;2022-09-03T01:20:45;2.80;;;1.20;;
47329;SDS011;33060;50.178;7.570;2022-09-03T01:23:54;2.65;;;1.05;;
47329;SDS011;33060;50.178;7.570;2022-09-03T01:29:24;1.42;;;1.00;;
47329;SDS011;33060;50.178;7.570;2022-09-03T01:45:50;1.60;;;1.00;;
47329;SDS011;33060;50.178;7.570;2022-09-03T01:51:07;3.15;;;1.00;;
47329;SDS011;33060;50.178;7.570;2022-09-03T01:59:41;1.30;;;0.90;;
47329;SDS011;33060;50.178;7.570;2022-09-03T02:02:25;4.15;;;1.20;;
47329;SDS011;33060;50.178;7.570;2022-09-03T02:05:04;1.50;;;1.20;;
47329;SDS011;33060;50.178;7.570;2022-09-03T02:07:35;2.67;;;1.10;;
47329;SDS011;33060;50.178;7.570;2022-09-03T02:10:31;2.53;;;1.20;;
47329;SDS011;33060;50.178;7.570;2022-09-03T02:15:51;2.75;;;0.90;;
47329;SDS011;33060;50.178;7.570;2022-09-03T02:18:23;1.63;;;1.20;;
47329;SDS011;33060;50.178;7.570;2022-09-03T02:20:54;1.75;;;1.02;;
47329;SDS011;33060;50.178;7.570;2022-09-03T02:23:21;1.48;;;0.93;;
47329;SDS011;33060;50.178;7.570;2022-09-03T02:25:57;3.20;;;1.10;;
47329;SDS011;33060;50.178;7.570;2022-09-03T02:28:27;2.55;;;1.20;;
47329;SDS011;33060;50.178;7.570;2022-09-03T02:30:56;1.63;;;1.10;;
47329;SDS011;33060;50.178;7.570;2022-09-03T02:33:23;2.45;;;1.10;;
47329;SDS011;33060;50.178;7.570;2022-09-03T02:35:51;2.05;;;1.10;;
47329;SDS011;33060;50.178;7.570;2022-09-03T02:38:20;2.45;;;1.10;;
47329;SDS011;33060;50.178;7.570;2022-09-03T02:40:51;3.08;;;1.23;;
47329;SDS011;33060;50.178;7.570;2022-09-03T02:43:24;1.35;;;0.98;;
47329;SDS011;33060;50.178;7.570;2022-09-03T02:45:58;1.10;;;0.98;;
47329;SDS011;33060;50.178;7.570;2022-09-03T02:48:29;2.22;;;1.30;;
47329;SDS011;33060;50.178;7.570;2022-09-03T02:50:56;1.08;;;0.90;;
47329;SDS011;33060;50.178;7.570;2022-09-03T02:53:22;2.83;;;1.20;;
47329;SDS011;33060;50.178;7.570;2022-09-03T02:55:49;1.30;;;1.02;;
47329;SDS011;33060;50.178;7.570;2022-09-03T02:58:16;2.03;;;1.17;;
47329;SDS011;33060;50.178;7.570;2022-09-03T03:00:42;3.05;;;1.10;;
47329;SDS011;33060;50.178;7.570;2022-09-03T03:03:10;2.97;;;1.10;;
47329;SDS011;33060;50.178;7.570;2022-09-03T03:05:47;1.65;;;1.10;;
47329;SDS011;33060;50.178;7.570;2022-09-03T03:08:16;1.15;;;0.95;;
47329;SDS011;33060;50.178;7.570;2022-09-03T03:10:47;1.73;;;1.13;;
47329;SDS011;33060;50.178;7.570;2022-09-03T03:13:14;3.67;;;1.10;;
47329;SDS011;33060;50.178;7.570;2022-09-03T03:15:41;2.00;;;1.05;;
47329;SDS011;33060;50.178;7.570;2022-09-03T03:18:09;2.28;;;1.15;;
47329;SDS011;33060;50.178;7.570;2022-09-03T03:20:40;1.45;;;1.10;;
47329;SDS011;33060;50.178;7.570;2022-09-03T03:23:07;1.80;;;1.23;;
47329;SDS011;33060;50.178;7.570;2022-09-03T03:25:35;1.58;;;1.25;;
47329;SDS011;33060;50.178;7.570;2022-09-03T03:28:03;1.48;;;1.10;;
47329;SDS011;33060;50.178;7.570;2022-09-03T03:30:30;1.80;;;1.13;;
47329;SDS011;33060;50.178;7.570;2022-09-03T03:32:58;2.10;;;1.17;;
47329;SDS011;33060;50.178;7.570;2022-09-03T03:35:25;1.60;;;1.10;;
47329;SDS011;33060;50.178;7.570;2022-09-03T03:37:52;2.38;;;1.20;;
47329;SDS011;33060;50.178;7.570;2022-09-03T03:40:19;2.95;;;1.17;;
47329;SDS011;33060;50.178;7.570;2022-09-03T03:42:45;3.35;;;1.17;;
47329;SDS011;33060;50.178;7.570;2022-09-03T03:45:12;1.70;;;1.20;;
47329;SDS011;33060;50.178;7.570;2022-09-03T03:47:38;1.80;;;1.10;;
47329;SDS011;33060;50.178;7.570;2022-09-03T03:50:05;1.08;;;0.88;;
47329;SDS011;33060;50.178;7.570;2022-09-03T03:52:32;1.70;;;1.17;;
47329;SDS011;33060;50.178;7.570;2022-09-03T03:54:59;2.35;;;1.10;;
47329;SDS011;33060;50.178;7.570;2022-09-03T03:57:28;2.83;;;1.23;;
47329;SDS011;33060;50.178;7.570;2022-09-03T03:59:56;1.75;;;0.95;;
47329;SDS011;33060;50.178;7.570;2022-09-03T04:02:23;1.33;;;0.90;;
47329;SDS011;33060;50.178;7.570;2022-09-03T04:04:50;2.67;;;1.27;;
47329;SDS011;33060;50.178;7.570;2022-09-03T04:07:17;1.77;;;1.10;;
47329;SDS011;33060;50.178;7.570;2022-09-03T04:09:43;2.58;;;1.30;;
47329;SDS011;33060;50.178;7.570;2022-09-03T04:12:10;1.50;;;1.10;;
47329;SDS011;33060;50.178;7.570;2022-09-03T04:14:37;3.00;;;1.10;;
47329;SDS011;33060;50.178;7.570;2022-09-03T04:17:04;2.15;;;1.10;;
47329;SDS011;33060;50.178;7.570;2022-09-03T04:19:30;3.65;;;1.20;;
47329;SDS011;33060;50.178;7.570;2022-09-03T04:21:57;1.65;;;1.13;;
47329;SDS011;33060;50.178;7.570;2022-09-03T04:24:24;2.05;;;1.10;;
47329;SDS011;33060;50.178;7.570;2022-09-03T04:26:50;3.60;;;1.13;;
47329;SDS011;33060;50.178;7.570;2022-09-03T04:29:19;4.60;;;1.30;;
47329;SDS011;33060;50.178;7.570;2022-09-03T04:31:47;1.50;;;1.13;;
47329;SDS011;33060;50.178;7.570;2022-09-03T04:34:32;2.13;;;1.00;;
47329;SDS011;33060;50.178;7.570;2022-09-03T04:36:59;2.25;;;1.20;;
47329;SDS011;33060;50.178;7.570;2022-09-03T04:39:25;1.30;;;1.08;;
47329;SDS011;33060;50.178;7.570;2022-09-03T04:41:52;2.10;;;1.10;;
47329;SDS011;33060;50.178;7.570;2022-09-03T04:44:19;2.55;;;1.13;;
47329;SDS011;33060;50.178;7.570;2022-09-03T04:46:45;2.00;;;1.30;;
47329;SDS011;33060;50.178;7.570;2022-09-03T04:49:13;2.83;;;1.27;;
47329;SDS011;33060;50.178;7.570;2022-09-03T04:51:40;1.88;;;1.10;;
47329;SDS011;33060;50.178;7.570;2022-09-03T04:54:07;1.95;;;1.10;;
47329;SDS011;33060;50.178;7.570;2022-09-03T04:56:35;1.90;;;1.20;;
47329;SDS011;33060;50.178;7.570;2022-09-03T04:59:05;2.25;;;1.38;;
47329;SDS011;33060;50.178;7.570;2022-09-03T05:01:34;1.42;;;1.15;;
47329;SDS011;33060;50.178;7.570;2022-09-03T05:04:03;3.45;;;1.27;;
47329;SDS011;33060;50.178;7.570;2022-09-03T05:06:31;1.27;;;1.15;;
47329;SDS011;33060;50.178;7.570;2022-09-03T05:08:58;2.58;;;1.40;;
47329;SDS011;33060;50.178;7.570;2022-09-03T05:11:26;2.92;;;1.20;;
47329;SDS011;33060;50.178;7.570;2022-09-03T05:13:54;3.25;;;1.40;;
47329;SDS011;33060;50.178;7.570;2022-09-03T05:16:23;2.78;;;1.17;;
47329;SDS011;33060;50.178;7.570;2022-09-03T05:18:51;1.90;;;1.10;;
47329;SDS011;33060;50.178;7.570;2022-09-03T05:21:19;3.00;;;1.20;;
47329;SDS011;33060;50.178;7.570;2022-09-03T05:23:46;2.88;;;1.40;;
47329;SDS011;33060;50.178;7.570;2022-09-03T05:26:17;2.50;;;1.73;;
47329;SDS011;33060;50.178;7.570;2022-09-03T05:28:45;4.43;;;1.50;;
47329;SDS011;33060;50.178;7.570;2022-09-03T05:31:16;3.78;;;1.70;;
47329;SDS011;33060;50.178;7.570;2022-09-03T05:33:45;2.83;;;1.50;;
47329;SDS011;33060;50.178;7.570;2022-09-03T05:36:21;2.83;;;1.50;;
47329;SDS011;33060;50.178;7.570;2022-09-03T05:38:49;3.38;;;1.67;;
47329;SDS011;33060;50.178;7.570;2022-09-03T05:41:17;3.33;;;1.65;;
47329;SDS011;33060;50.178;7.570;2022-09-03T05:43:46;2.90;;;1.73;;
47329;SDS011;33060;50.178;7.570;2022-09-03T05:46:21;2.53;;;2.10;;
47329;SDS011;33060;50.178;7.570;2022-09-03T05:48:55;3.80;;;2.00;;
47329;SDS011;33060;50.178;7.570;2022-09-03T05:51:23;2.63;;;2.00;;
47329;SDS011;33060;50.178;7.570;2022-09-03T05:53:49;3.58;;;2.10;;
47329;SDS011;33060;50.178;7.570;2022-09-03T05:56:17;2.05;;;1.80;;
47329;SDS011;33060;50.178;7.570;2022-09-03T05:58:46;2.80;;;1.92;;
47329;SDS011;33060;50.178;7.570;2022-09-03T06:01:18;4.53;;;2.00;;
47329;SDS011;33060;50.178;7.570;2022-09-03T06:03:47;3.13;;;1.98;;
47329;SDS011;33060;50.178;7.570;2022-09-03T06:06:19;3.25;;;1.70;;
47329;SDS011;33060;50.178;7.570;2022-09-03T06:08:53;3.33;;;1.85;;
47329;SDS011;33060;50.178;7.570;2022-09-03T06:11:21;2.03;;;1.75;;
47329;SDS011;33060;50.178;7.570;2022-09-03T06:13:55;2.50;;;1.60;;
47329;SDS011;33060;50.178;7.570;2022-09-03T06:16:23;2.00;;;1.63;;
47329;SDS011;33060;50.178;7.570;2022-09-03T06:18:56;2.22;;;1.70;;
47329;SDS011;33060;50.178;7.570;2022-09-03T06:21:24;2.25;;;1.60;;
47329;SDS011;33060;50.178;7.570;2022-09-03T06:23:51;4.88;;;1.83;;
47329;SDS011;33060;50.178;7.570;2022-09-03T06:26:24;2.65;;;1.75;;
47329;SDS011;33060;50.178;7.570;2022-09-03T06:28:53;3.50;;;1.77;;
47329;SDS011;33060;50.178;7.570;2022-09-03T06:31:21;4.40;;;1.50;;
47329;SDS011;33060;50.178;7.570;2022-09-03T06:33:48;1.70;;;1.50;;
47329;SDS011;33060;50.178;7.570;2022-09-03T06:36:16;4.18;;;1.60;;
47329;SDS011;33060;50.178;7.570;2022-09-03T06:38:44;3.10;;;1.67;;
47329;SDS011;33060;50.178;7.570;2022-09-03T06:41:15;3.60;;;1.48;;
47329;SDS011;33060;50.178;7.570;2022-09-03T06:43:56;2.17;;;1.70;;
47329;SDS011;33060;50.178;7.570;2022-09-03T06:46:30;2.72;;;1.70;;
47329;SDS011;33060;50.178;7.570;2022-09-03T06:48:59;2.78;;;1.50;;
47329;SDS011;33060;50.178;7.570;2022-09-03T06:51:27;1.90;;;1.65;;
47329;SDS011;33060;50.178;7.570;2022-09-03T06:54:07;2.30;;;1.58;;
47329;SDS011;33060;50.178;7.570;2022-09-03T06:56:36;3.05;;;1.60;;
47329;SDS011;33060;50.178;7.570;2022-09-03T06:59:07;3.00;;;1.75;;
47329;SDS011;33060;50.178;7.570;2022-09-03T07:01:38;2.42;;;1.60;;
47329;SDS011;33060;50.178;7.570;2022-09-03T07:04:11;3.65;;;1.80;;
47329;SDS011;33060;50.178;7.570;2022-09-03T07:06:40;2.30;;;1.48;;
47329;SDS011;33060;50.178;7.570;2022-09-03T07:09:09;2.70;;;1.58;;
47329;SDS011;33060;50.178;7.570;2022-09-03T07:11:37;3.88;;;1.60;;
47329;SDS011;33060;50.178;7.570;2022-09-03T07:14:11;2.92;;;1.70;;
47329;SDS011;33060;50.178;7.570;2022-09-03T07:16:38;3.38;;;1.70;;
47329;SDS011;33060;50.178;7.570;2022-09-03T07:19:07;3.47;;;1.65;;
47329;SDS011;33060;50.178;7.570;2022-09-03T07:21:35;3.33;;;1.42;;
47329;SDS011;33060;50.178;7.570;2022-09-03T07:24:02;1.88;;;1.52;;
47329;SDS011;33060;50.178;7.570;2022-09-03T07:26:32;3.78;;;1.50;;
47329;SDS011;33060;50.178;7.570;2022-09-03T07:29:00;3.28;;;1.33;;
47329;SDS011;33060;50.178;7.570;2022-09-03T07:31:28;1.95;;;1.48;;
47329;SDS011;33060;50.178;7.570;2022-09-03T07:34:04;3.45;;;1.52;;
47329;SDS011;33060;50.178;7.570;2022-09-03T07:36:41;2.58;;;1.77;;
47329;SDS011;33060;50.178;7.570;2022-09-03T07:39:14;2.35;;;1.60;;
47329;SDS011;33060;50.178;7.570;2022-09-03T07:41:42;2.45;;;1.55;;
47329;SDS011;33060;50.178;7.570;2022-09-03T07:44:11;2.97;;;1.67;;
47329;SDS011;33060;50.178;7.570;2022-09-03T07:46:40;1.90;;;1.60;;
47329;SDS011;33060;50.178;7.570;2022-09-03T07:49:09;2.42;;;1.55;;
47329;SDS011;33060;50.178;7.570;2022-09-03T07:51:36;2.00;;;1.55;;
47329;SDS011;33060;50.178;7.570;2022-09-03T07:54:05;4.78;;;1.85;;
47329;SDS011;33060;50.178;7.570;2022-09-03T07:56:35;2.75;;;1.73;;
47329;SDS011;33060;50.178;7.570;2022-09-03T07:59:02;1.95;;;1.38;;
47329;SDS011;33060;50.178;7.570;2022-09-03T08:01:30;2.05;;;1.58;;
47329;SDS011;33060;50.178;7.570;2022-09-03T08:03:58;1.98;;;1.63;;
47329;SDS011;33060;50.178;7.570;2022-09-03T08:06:26;3.17;;;1.60;;
47329;SDS011;33060;50.178;7.570;2022-09-03T08:08:54;2.67;;;1.70;;
47329;SDS011;33060;50.178;7.570;2022-09-03T08:11:30;2.80;;;1.67;;
47329;SDS011;33060;50.178;7.570;2022-09-03T08:14:00;5.25;;;1.88;;
47329;SDS011;33060;50.178;7.570;2022-09-03T08:16:33;2.17;;;1.52;;
47329;SDS011;33060;50.178;7.570;2022-09-03T08:19:01;3.22;;;1.73;;
47329;SDS011;33060;50.178;7.570;2022-09-03T08:21:28;4.07;;;1.98;;
47329;SDS011;33060;50.178;7.570;2022-09-03T08:23:55;3.00;;;1.77;;
47329;SDS011;33060;50.178;7.570;2022-09-03T08:26:29;4.30;;;1.73;;
47329;SDS011;33060;50.178;7.570;2022-09-03T08:29:00;2.00;;;1.80;;
47329;SDS011;33060;50.178;7.570;2022-09-03T08:31:28;3.75;;;1.92;;
47329;SDS011;33060;50.178;7.570;2022-09-03T08:33:56;2.35;;;1.77;;
47329;SDS011;33060;50.178;7.570;2022-09-03T08:36:25;3.22;;;1.67;;
47329;SDS011;33060;50.178;7.570;2022-09-03T08:38:56;3.17;;;1.80;;
47329;SDS011;33060;50.178;7.570;2022-09-03T08:41:27;4.55;;;2.10;;
47329;SDS011;33060;50.178;7.570;2022-09-03T08:44:23;2.88;;;2.13;;
47329;SDS011;33060;50.178;7.570;2022-09-03T08:47:01;4.90;;;2.58;;
47329;SDS011;33060;50.178;7.570;2022-09-03T08:49:47;3.53;;;2.13;;
47329;SDS011;33060;50.178;7.570;2022-09-03T08:57:57;4.15;;;2.10;;
47329;SDS011;33060;50.178;7.570;2022-09-03T09:06:16;2.97;;;2.15;;
47329;SDS011;33060;50.178;7.570;2022-09-03T09:08:57;2.53;;;2.15;;
47329;SDS011;33060;50.178;7.570;2022-09-03T09:14:37;2.47;;;2.03;;
47329;SDS011;33060;50.178;7.570;2022-09-03T09:17:20;3.75;;;2.00;;
47329;SDS011;33060;50.178;7.570;2022-09-03T09:20:10;3.67;;;2.38;;
47329;SDS011;33060;50.178;7.570;2022-09-03T09:22:48;4.93;;;2.03;;
47329;SDS011;33060;50.178;7.570;2022-09-03T09:25:20;2.85;;;2.08;;
47329;SDS011;33060;50.178;7.570;2022-09-03T09:30:26;4.60;;;2.03;;
47329;SDS011;33060;50.178;7.570;2022-09-03T09:32:54;2.40;;;2.10;;
47329;SDS011;33060;50.178;7.570;2022-09-03T09:35:21;2.58;;;1.70;;
47329;SDS011;33060;50.178;7.570;2022-09-03T09:37:55;3.28;;;1.90;;
47329;SDS011;33060;50.178;7.570;2022-09-03T09:40:25;2.60;;;1.90;;
47329;SDS011;33060;50.178;7.570;2022-09-03T09:43:05;4.05;;;1.90;;
47329;SDS011;33060;50.178;7.570;2022-09-03T09:45:43;3.05;;;2.30;;
47329;SDS011;33060;50.178;7.570;2022-09-03T09:51:05;2.97;;;1.70;;
47329;SDS011;33060;50.178;7.570;2022-09-03T09:53:35;2.72;;;1.90;;
47329;SDS011;33060;50.178;7.570;2022-09-03T09:56:02;5.53;;;2.08;;
47329;SDS011;33060;50.178;7.570;2022-09-03T09:58:30;2.75;;;1.58;;
47329;SDS011;33060;50.178;7.570;2022-09-03T10:03:32;2.72;;;1.70;;
47329;SDS011;33060;50.178;7.570;2022-09-03T10:06:05;2.05;;;1.80;;
47329;SDS011;33060;50.178;7.570;2022-09-03T10:09:04;2.72;;;1.58;;
47329;SDS011;33060;50.178;7.570;2022-09-03T10:11:33;2.08;;;1.63;;
47329;SDS011;33060;50.178;7.570;2022-09-03T10:14:05;2.22;;;1.40;;
47329;SDS011;33060;50.178;7.570;2022-09-03T10:16:40;2.58;;;1.40;;
47329;SDS011;33060;50.178;7.570;2022-09-03T10:19:18;2.00;;;1.23;;
47329;SDS011;33060;50.178;7.570;2022-09-03T10:21:58;2.50;;;1.23;;
47329;SDS011;33060;50.178;7.570;2022-09-03T10:24:46;1.50;;;1.30;;
47329;SDS011;33060;50.178;7.570;2022-09-03T10:27:24;1.60;;;1.35;;
47329;SDS011;33060;50.178;7.570;2022-09-03T10:29:51;1.75;;;1.30;;
47329;SDS011;33060;50.178;7.570;2022-09-03T10:43:03;4.35;;;1.80;;
47329;SDS011;33060;50.178;7.570;2022-09-03T10:51:04;1.60;;;1.50;;
47329;SDS011;33060;50.178;7.570;2022-09-03T10:57:02;3.72;;;1.70;;
47329;SDS011;33060;50.178;7.570;2022-09-03T11:07:36;3.13;;;1.80;;
47329;SDS011;33060;50.178;7.570;2022-09-03T11:10:11;3.47;;;2.05;;
47329;SDS011;33060;50.178;7.570;2022-09-03T11:13:00;1.80;;;1.60;;
47329;SDS011;33060;50.178;7.570;2022-09-03T11:18:05;5.15;;;1.95;;
47329;SDS011;33060;50.178;7.570;2022-09-03T11:20:41;3.20;;;1.90;;
47329;SDS011;33060;50.178;7.570;2022-09-03T11:23:09;2.15;;;1.50;;
47329;SDS011;33060;50.178;7.570;2022-09-03T11:25:44;3.05;;;1.40;;
47329;SDS011;33060;50.178;7.570;2022-09-03T11:34:06;1.50;;;1.40;;
47329;SDS011;33060;50.178;7.570;2022-09-03T11:36:47;1.92;;;1.73;;
47329;SDS011;33060;50.178;7.570;2022-09-03T11:39:17;3.50;;;1.80;;
47329;SDS011;33060;50.178;7.570;2022-09-03T11:41:58;2.10;;;1.85;;
47329;SDS011;33060;50.178;7.570;2022-09-03T11:44:37;1.63;;;1.48;;
47329;SDS011;33060;50.178;7.570;2022-09-03T11:47:20;3.25;;;2.05;;
47329;SDS011;33060;50.178;7.570;2022-09-03T11:49:50;2.80;;;2.05;;
47329;SDS011;33060;50.178;7.570;2022-09-03T11:52:26;2.25;;;2.05;;
47329;SDS011;33060;50.178;7.570;2022-09-03T11:55:06;3.28;;;2.35;;
47329;SDS011;33060;50.178;7.570;2022-09-03T11:57:38;3.00;;;2.25;;
47329;SDS011;33060;50.178;7.570;2022-09-03T12:00:13;2.10;;;1.90;;
47329;SDS011;33060;50.178;7.570;2022-09-03T12:02:47;2.20;;;2.00;;
47329;SDS011;33060;50.178;7.570;2022-09-03T12:14:00;3.60;;;2.58;;
47329;SDS011;33060;50.178;7.570;2022-09-03T12:19:26;2.47;;;2.20;;
47329;SDS011;33060;50.178;7.570;2022-09-03T12:22:01;2.50;;;2.28;;
47329;SDS011;33060;50.178;7.570;2022-09-03T12:24:30;5.05;;;2.70;;
47329;SDS011;33060;50.178;7.570;2022-09-03T12:27:03;2.78;;;2.33;;
47329;SDS011;33060;50.178;7.570;2022-09-03T12:29:30;4.35;;;2.50;;
47329;SDS011;33060;50.178;7.570;2022-09-03T12:32:04;3.90;;;2.40;;
47329;SDS011;33060;50.178;7.570;2022-09-03T12:34:33;2.92;;;1.98;;
47329;SDS011;33060;50.178;7.570;2022-09-03T12:37:01;2.90;;;2.20;;
47329;SDS011;33060;50.178;7.570;2022-09-03T12:39:28;4.03;;;2.28;;
47329;SDS011;33060;50.178;7.570;2022-09-03T12:42:21;3.65;;;2.30;;
47329;SDS011;33060;50.178;7.570;2022-09-03T12:44:51;2.92;;;1.90;;
47329;SDS011;33060;50.178;7.570;2022-09-03T12:47:20;3.78;;;2.05;;
47329;SDS011;33060;50.178;7.570;2022-09-03T12:50:05;2.97;;;1.80;;
47329;SDS011;33060;50.178;7.570;2022-09-03T12:52:46;2.20;;;1.88;;
47329;SDS011;33060;50.178;7.570;2022-09-03T12:57:48;2.55;;;2.03;;
47329;SDS011;33060;50.178;7.570;2022-09-03T13:00:27;2.10;;;1.90;;
47329;SDS011;33060;50.178;7.570;2022-09-03T13:05:28;4.32;;;2.45;;
47329;SDS011;33060;50.178;7.570;2022-09-03T13:07:59;2.67;;;2.47;;
47329;SDS011;33060;50.178;7.570;2022-09-03T13:10:31;2.30;;;2.03;;
47329;SDS011;33060;50.178;7.570;2022-09-03T13:13:07;2.85;;;2.50;;
47329;SDS011;33060;50.178;7.570;2022-09-03T13:15:41;2.60;;;2.40;;
47329;SDS011;33060;50.178;7.570;2022-09-03T13:18:29;5.40;;;2.63;;
47329;SDS011;33060;50.178;7.570;2022-09-03T13:23:52;2.53;;;2.00;;
47329;SDS011;33060;50.178;7.570;2022-09-03T13:31:34;2.03;;;1.80;;
47329;SDS011;33060;50.178;7.570;2022-09-03T13:34:13;2.58;;;2.20;;
47329;SDS011;33060;50.178;7.570;2022-09-03T13:36:57;2.45;;;2.25;;
47329;SDS011;33060;50.178;7.570;2022-09-03T13:39:32;2.58;;;2.10;;
47329;SDS011;33060;50.178;7.570;2022-09-03T13:42:06;2.20;;;2.00;;
47329;SDS011;33060;50.178;7.570;2022-09-03T13:44:47;2.63;;;2.15;;
47329;SDS011;33060;50.178;7.570;2022-09-03T13:50:28;3.05;;;2.20;;
47329;SDS011;33060;50.178;7.570;2022-09-03T13:53:04;3.78;;;2.38;;
47329;SDS011;33060;50.178;7.570;2022-09-03T13:55:51;2.25;;;2.05;;
47329;SDS011;33060;50.178;7.570;2022-09-03T13:58:28;3.50;;;2.20;;
47329;SDS011;33060;50.178;7.570;2022-09-03T14:04:00;2.45;;;2.25;;
47329;SDS011;33060;50.178;7.570;2022-09-03T14:12:13;2.58;;;2.38;;
47329;SDS011;33060;50.178;7.570;2022-09-03T14:14:48;3.08;;;2.30;;
47329;SDS011;33060;50.178;7.570;2022-09-03T14:17:41;2.30;;;2.10;;
47329;SDS011;33060;50.178;7.570;2022-09-03T14:20:51;3.53;;;2.40;;
47329;SDS011;33060;50.178;7.570;2022-09-03T14:26:27;3.80;;;2.45;;
47329;SDS011;33060;50.178;7.570;2022-09-03T14:37:59;4.40;;;3.38;;
47329;SDS011;33060;50.178;7.570;2022-09-03T14:46:31;3.13;;;2.50;;
47329;SDS011;33060;50.178;7.570;2022-09-03T14:49:14;6.30;;;5.15;;
47329;SDS011;33060;50.178;7.570;2022-09-03T15:00:00;3.05;;;2.70;;
47329;SDS011;33060;50.178;7.570;2022-09-03T15:02:52;4.90;;;2.50;;
47329;SDS011;33060;50.178;7.570;2022-09-03T15:07:59;2.67;;;2.47;;
47329;SDS011;33060;50.178;7.570;2022-09-03T15:10:47;3.33;;;2.42;;
47329;SDS011;33060;50.178;7.570;2022-09-03T15:13:58;3.22;;;2.72;;
47329;SDS011;33060;50.178;7.570;2022-09-03T15:19:10;2.78;;;2.50;;
47329;SDS011;33060;50.178;7.570;2022-09-03T15:21:49;4.30;;;2.60;;
47329;SDS011;33060;50.178;7.570;2022-09-03T15:38:19;3.55;;;3.25;;
47329;SDS011;33060;50.178;7.570;2022-09-03T15:41:33;3.22;;;2.50;;
47329;SDS011;33060;50.178;7.570;2022-09-03T15:44:10;3.33;;;3.03;;
47329;SDS011;33060;50.178;7.570;2022-09-03T15:57:45;2.13;;;1.10;;
47329;SDS011;33060;50.178;7.570;2022-09-03T16:00:20;1.00;;;0.90;;
47329;SDS011;33060;50.178;7.570;2022-09-03T16:03:08;1.17;;;0.90;;
47329;SDS011;33060;50.178;7.570;2022-09-03T16:05:40;1.67;;;1.02;;
47329;SDS011;33060;50.178;7.570;2022-09-03T16:08:20;2.38;;;1.20;;
47329;SDS011;33060;50.178;7.570;2022-09-03T16:11:04;3.05;;;0.93;;
47329;SDS011;33060;50.178;7.570;2022-09-03T16:16:41;1.92;;;1.23;;
47329;SDS011;33060;50.178;7.570;2022-09-03T16:19:17;1.58;;;1.27;;
47329;SDS011;33060;50.178;7.570;2022-09-03T16:22:00;2.85;;;1.75;;
47329;SDS011;33060;50.178;7.570;2022-09-03T16:24:36;2.55;;;1.75;;
47329;SDS011;33060;50.178;7.570;2022-09-03T16:27:14;1.60;;;1.42;;
47329;SDS011;33060;50.178;7.570;2022-09-03T16:29:55;3.08;;;1.70;;
47329;SDS011;33060;50.178;7.570;2022-09-03T16:38:35;3.65;;;2.20;;
47329;SDS011;33060;50.178;7.570;2022-09-03T16:47:14;3.55;;;2.00;;
47329;SDS011;33060;50.178;7.570;2022-09-03T16:52:48;1.70;;;1.55;;
47329;SDS011;33060;50.178;7.570;2022-09-03T16:55:30;1.80;;;1.42;;
47329;SDS011;33060;50.178;7.570;2022-09-03T17:01:08;2.25;;;1.63;;
47329;SDS011;33060;50.178;7.570;2022-09-03T17:06:26;1.70;;;1.42;;
47329;SDS011;33060;50.178;7.570;2022-09-03T17:09:05;1.77;;;1.55;;
47329;SDS011;33060;50.178;7.570;2022-09-03T17:25:38;4.60;;;4.07;;
47329;SDS011;33060;50.178;7.570;2022-09-03T17:31:11;9.63;;;8.57;;
47329;SDS011;33060;50.178;7.570;2022-09-03T17:36:55;3.38;;;3.08;;
47329;SDS011;33060;50.178;7.570;2022-09-03T17:39:41;2.33;;;1.70;;
47329;SDS011;33060;50.178;7.570;2022-09-03T17:45:26;2.00;;;1.75;;
47329;SDS011;33060;50.178;7.570;2022-09-03T18:02:38;7.55;;;5.38;;
47329;SDS011;33060;50.178;7.570;2022-09-03T18:13:53;2.67;;;1.73;;
47329;SDS011;33060;50.178;7.570;2022-09-03T18:16:31;3.05;;;1.80;;
47329;SDS011;33060;50.178;7.570;2022-09-03T18:19:43;2.00;;;1.80;;
47329;SDS011;33060;50.178;7.570;2022-09-03T18:22:18;1.83;;;1.70;;
47329;SDS011;33060;50.178;7.570;2022-09-03T18:25:06;3.63;;;1.70;;
47329;SDS011;33060;50.178;7.570;2022-09-03T18:27:55;3.20;;;1.92;;
47329;SDS011;33060;50.178;7.570;2022-09-03T18:30:44;3.38;;;1.80;;
47329;SDS011;33060;50.178;7.570;2022-09-03T18:33:30;1.90;;;1.70;;
47329;SDS011;33060;50.178;7.570;2022-09-03T18:36:15;3.40;;;2.05;;
47329;SDS011;33060;50.178;7.570;2022-09-03T18:45:10;2.95;;;1.90;;
47329;SDS011;33060;50.178;7.570;2022-09-03T18:48:35;3.03;;;2.00;;
47329;SDS011;33060;50.178;7.570;2022-09-03T18:57:42;3.08;;;2.08;;
47329;SDS011;33060;50.178;7.570;2022-09-03T19:00:51;4.30;;;2.42;;
47329;SDS011;33060;50.178;7.570;2022-09-03T19:03:50;2.38;;;1.90;;
47329;SDS011;33060;50.178;7.570;2022-09-03T19:09:44;3.22;;;2.35;;
47329;SDS011;33060;50.178;7.570;2022-09-03T19:12:42;2.20;;;1.95;;
47329;SDS011;33060;50.178;7.570;2022-09-03T19:15:36;2.20;;;2.00;;
47329;SDS011;33060;50.178;7.570;2022-09-03T19:24:25;2.80;;;1.98;;
47329;SDS011;33060;50.178;7.570;2022-09-03T19:27:17;2.10;;;1.70;;
47329;SDS011;33060;50.178;7.570;2022-09-03T19:30:30;2.30;;;2.10;;
47329;SDS011;33060;50.178;7.570;2022-09-03T19:37:03;3.45;;;2.15;;
47329;SDS011;33060;50.178;7.570;2022-09-03T19:46:53;2.45;;;2.13;;
47329;SDS011;33060;50.178;7.570;2022-09-03T19:52:37;2.65;;;1.75;;
47329;SDS011;33060;50.178;7.570;2022-09-03T19:55:38;2.53;;;2.33;;
47329;SDS011;33060;50.178;7.570;2022-09-03T19:58:54;3.10;;;2.13;;
47329;SDS011;33060;50.178;7.570;2022-09-03T20:01:44;2.83;;;2.00;;
47329;SDS011;33060;50.178;7.570;2022-09-03T20:04:37;2.33;;;2.10;;
47329;SDS011;33060;50.178;7.570;2022-09-03T20:07:25;2.97;;;2.08;;
47329;SDS011;33060;50.178;7.570;2022-09-03T20:10:12;2.53;;;2.03;;
47329;SDS011;33060;50.178;7.570;2022-09-03T20:15:20;3.30;;;2.28;;
47329;SDS011;33060;50.178;7.570;2022-09-03T20:17:55;2.80;;;2.10;;
47329;SDS011;33060;50.178;7.570;2022-09-03T20:20:33;2.80;;;2.35;;
47329;SDS011;33060;50.178;7.570;2022-09-03T20:26:18;2.83;;;2.00;;
47329;SDS011;33060;50.178;7.570;2022-09-03T20:55:50;3.13;;;2.55;;
47329;SDS011;33060;50.178;7.570;2022-09-03T21:04:03;2.92;;;2.63;;
47329;SDS011;33060;50.178;7.570;2022-09-03T21:06:49;2.88;;;2.58;;
47329;SDS011;33060;50.178;7.570;2022-09-03T21:10:04;2.97;;;2.58;;
47329;SDS011;33060;50.178;7.570;2022-09-03T21:18:10;2.97;;;2.60;;
47329;SDS011;33060;50.178;7.570;2022-09-03T21:23:30;3.17;;;2.88;;
47329;SDS011;33060;50.178;7.570;2022-09-03T21:26:09;3.22;;;2.92;;
47329;SDS011;33060;50.178;7.570;2022-09-03T21:28:41;3.25;;;2.92;;
47329;SDS011;33060;50.178;7.570;2022-09-03T21:31:14;3.10;;;2.60;;
47329;SDS011;33060;50.178;7.570;2022-09-03T21:33:47;3.33;;;2.80;;
47329;SDS011;33060;50.178;7.570;2022-09-03T21:36:23;4.05;;;2.67;;
47329;SDS011;33060;50.178;7.570;2022-09-03T21:39:06;2.90;;;2.60;;
47329;SDS011;33060;50.178;7.570;2022-09-03T21:41:37;2.88;;;2.50;;
47329;SDS011;33060;50.178;7.570;2022-09-03T21:44:10;2.70;;;2.22;;
47329;SDS011;33060;50.178;7.570;2022-09-03T21:46:51;2.78;;;2.58;;